createdAt,value
2022-12-09T04:43:54.085Z,956.46
2022-12-09T04:44:55.072Z,956.44
2022-12-09T04:50:51.915Z,956.40
2022-12-09T04:51:51.641Z,956.39
2022-12-09T04:52:51.596Z,956.36
2022-12-09T04:53:51.970Z,956.40
2022-12-09T04:54:52.230Z,956.40
2022-12-09T04:55:51.840Z,956.38
2022-12-09T04:56:52.838Z,956.38
2022-12-09T04:57:52.127Z,956.34
2022-12-09T04:58:51.878Z,956.35
2022-12-09T04:59:51.860Z,956.26
2022-12-09T05:00:52.162Z,956.26
2022-12-09T05:01:52.841Z,956.25
2022-12-09T05:02:52.778Z,956.27
2022-12-09T05:03:53.173Z,956.24
2022-12-09T05:04:53.103Z,956.23
2022-12-09T05:05:52.561Z,956.24
2022-12-09T05:06:52.669Z,956.21
2022-12-09T05:07:53.295Z,956.27
2022-12-09T05:08:52.827Z,956.26
2022-12-09T05:09:52.317Z,956.21
2022-12-09T05:10:52.601Z,956.20
2022-12-09T05:11:52.530Z,956.19
2022-12-09T05:12:52.416Z,956.16
2022-12-09T05:13:52.538Z,956.15
2022-12-09T05:14:52.855Z,956.14
2022-12-09T05:15:53.317Z,956.11
2022-12-09T05:16:53.379Z,956.09
2022-12-09T05:17:53.322Z,956.09
2022-12-09T05:18:53.379Z,956.12
2022-12-09T05:19:52.681Z,956.14
2022-12-09T05:20:52.936Z,956.08
2022-12-09T05:21:52.976Z,956.09
2022-12-09T05:22:53.202Z,956.03
2022-12-09T05:23:52.968Z,956.03
2022-12-09T05:24:53.131Z,956.03
2022-12-09T05:25:53.938Z,955.98
2022-12-09T05:26:53.092Z,956.01
2022-12-09T05:27:53.074Z,956.06
2022-12-09T05:28:53.124Z,956.06
2022-12-09T05:29:53.194Z,956.06
2022-12-09T05:30:53.979Z,956.07
2022-12-09T05:31:53.968Z,956.05
2022-12-09T05:32:53.234Z,956.07
2022-12-09T05:33:53.367Z,956.06
2022-12-09T05:34:53.373Z,956.05
2022-12-09T05:35:54.240Z,956.09
2022-12-09T05:36:54.329Z,956.08
2022-12-09T05:37:53.760Z,956.08
2022-12-09T05:38:54.606Z,956.11
2022-12-09T05:39:53.625Z,956.10
2022-12-09T05:40:54.226Z,956.11
2022-12-09T05:41:53.900Z,956.10
2022-12-09T05:42:54.524Z,956.09
2022-12-09T05:43:54.057Z,956.10
2022-12-09T05:44:54.243Z,956.14
2022-12-09T05:45:54.095Z,956.13
2022-12-09T05:46:53.799Z,956.13
2022-12-09T05:47:54.269Z,956.09
2022-12-09T05:48:54.886Z,956.12
2022-12-09T05:49:54.897Z,956.16
2022-12-09T05:50:53.893Z,956.13
2022-12-09T05:51:54.896Z,956.16
2022-12-09T05:52:54.018Z,956.16
2022-12-09T05:53:54.875Z,956.13
2022-12-09T05:54:54.811Z,956.10
2022-12-09T05:55:54.913Z,956.13
2022-12-09T05:56:54.231Z,956.07
2022-12-09T05:57:55.016Z,956.12
2022-12-09T05:58:54.875Z,956.14
2022-12-09T05:59:55.287Z,956.18
2022-12-09T06:00:55.301Z,956.18
2022-12-09T06:01:54.439Z,956.23
2022-12-09T06:02:54.509Z,956.22
2022-12-09T06:03:54.720Z,956.25
2022-12-09T06:04:54.634Z,956.21
2022-12-09T06:05:55.454Z,956.19
2022-12-09T06:06:55.376Z,956.13
2022-12-09T06:07:54.823Z,956.07
2022-12-09T06:08:54.910Z,956.04
2022-12-09T06:09:54.805Z,956.06
2022-12-09T06:10:55.329Z,956.08
2022-12-09T06:11:54.761Z,956.08
2022-12-09T06:12:54.842Z,956.05
2022-12-09T06:13:56.079Z,956.08
2022-12-09T06:14:54.966Z,956.10
2022-12-09T06:15:55.347Z,956.11
2022-12-09T06:16:55.184Z,956.08
2022-12-09T06:17:55.127Z,956.09
2022-12-09T06:18:56.131Z,956.11
2022-12-09T06:19:55.940Z,956.12
2022-12-09T06:20:55.149Z,956.10
2022-12-09T06:21:55.992Z,956.08
2022-12-09T06:22:55.274Z,956.06
2022-12-09T06:23:55.817Z,956.08
2022-12-09T06:24:57.226Z,956.07
2022-12-09T06:25:56.644Z,956.09
2022-12-09T06:26:55.654Z,956.07
2022-12-09T06:27:55.666Z,956.06
2022-12-09T06:28:55.496Z,956.07
2022-12-09T06:29:55.883Z,956.06
2022-12-09T06:30:56.458Z,955.99
2022-12-09T06:31:56.268Z,955.99
2022-12-09T06:32:55.659Z,955.95
2022-12-09T06:33:57.611Z,955.95
2022-12-09T06:34:56.063Z,955.99
2022-12-09T06:35:56.229Z,955.98
2022-12-09T06:36:55.965Z,955.97
2022-12-09T06:37:55.867Z,955.95
2022-12-09T06:38:56.939Z,955.90
2022-12-09T06:39:57.142Z,955.90
2022-12-09T06:40:57.094Z,955.88
2022-12-09T06:41:57.134Z,955.86
2022-12-09T06:42:58.147Z,955.83
2022-12-09T06:43:56.052Z,955.78
2022-12-09T06:44:56.946Z,955.79
2022-12-09T06:45:56.473Z,955.84
2022-12-09T06:46:56.983Z,955.78
2022-12-09T06:47:57.264Z,955.80
2022-12-09T06:48:57.657Z,955.78
2022-12-09T06:50:00.940Z,955.79
2022-12-09T06:50:56.764Z,955.80
2022-12-09T06:51:57.585Z,955.80
2022-12-09T06:52:56.801Z,955.80
2022-12-09T06:53:57.425Z,955.81
2022-12-09T06:54:56.871Z,955.83
2022-12-09T06:55:56.614Z,955.85
2022-12-09T06:56:56.981Z,955.83
2022-12-09T06:57:56.899Z,955.84
2022-12-09T06:58:57.501Z,955.83
2022-12-09T06:59:57.486Z,955.88
2022-12-09T07:00:57.339Z,955.90
2022-12-09T07:01:56.967Z,955.86
2022-12-09T07:02:57.846Z,955.93
2022-12-09T07:03:58.436Z,955.92
2022-12-09T07:04:58.293Z,955.92
2022-12-09T07:05:57.978Z,955.93
2022-12-09T07:06:57.308Z,955.91
2022-12-09T07:07:57.472Z,955.88
2022-12-09T07:08:58.205Z,955.88
2022-12-09T07:09:57.291Z,955.87
2022-12-09T07:10:57.381Z,955.84
2022-12-09T07:11:57.593Z,955.82
2022-12-09T07:12:57.460Z,955.82
2022-12-09T07:13:58.383Z,955.85
2022-12-09T07:14:58.309Z,955.84
2022-12-09T07:15:58.356Z,955.88
2022-12-09T07:16:58.348Z,955.89
2022-12-09T07:17:57.841Z,955.93
2022-12-09T07:18:58.520Z,955.89
2022-12-09T07:20:03.342Z,955.85
2022-12-09T07:20:57.611Z,955.90
2022-12-09T07:21:57.925Z,955.88
2022-12-09T07:22:58.045Z,955.91
2022-12-09T07:23:57.768Z,955.91
2022-12-09T07:24:57.969Z,955.91
2022-12-09T07:25:58.604Z,955.88
2022-12-09T07:27:01.870Z,955.87
2022-12-09T07:27:58.233Z,955.80
2022-12-09T07:28:58.917Z,955.75
2022-12-09T07:29:58.359Z,955.77
2022-12-09T07:30:58.123Z,955.85
2022-12-09T07:31:58.103Z,955.86
2022-12-09T07:32:59.248Z,955.78
2022-12-09T07:33:58.949Z,955.77
2022-12-09T07:34:58.821Z,955.75
2022-12-09T07:35:58.248Z,955.78
2022-12-09T07:36:58.724Z,955.77
2022-12-09T07:37:58.610Z,955.75
2022-12-09T07:38:59.423Z,955.77
2022-12-09T07:39:58.356Z,955.79
2022-12-09T07:40:59.695Z,955.73
2022-12-09T07:41:59.556Z,955.72
2022-12-09T07:42:59.901Z,955.75
2022-12-09T07:43:59.311Z,955.72
2022-12-09T07:44:59.570Z,955.73
2022-12-09T07:45:59.527Z,955.76
2022-12-09T07:46:59.381Z,955.77
2022-12-09T07:47:59.025Z,955.75
2022-12-09T07:48:59.544Z,955.74
2022-12-09T07:50:04.693Z,955.76
2022-12-09T07:50:58.858Z,955.74
2022-12-09T07:51:58.892Z,955.79
2022-12-09T07:52:59.052Z,955.76
2022-12-09T07:54:00.180Z,955.74
2022-12-09T07:55:00.031Z,955.71
2022-12-09T07:55:59.767Z,955.67
2022-12-09T07:56:59.787Z,955.64
2022-12-09T07:57:59.148Z,955.63
2022-12-09T07:59:00.160Z,955.57
2022-12-09T07:59:59.958Z,955.61
2022-12-09T08:00:59.739Z,955.58
2022-12-09T08:02:05.545Z,955.58
2022-12-09T08:02:59.349Z,955.58
2022-12-09T08:03:59.371Z,955.58
2022-12-09T08:05:00.387Z,955.58
2022-12-09T08:06:00.337Z,955.58
2022-12-09T08:06:59.746Z,955.56
2022-12-09T08:07:59.814Z,955.54
2022-12-09T08:08:59.786Z,955.57
2022-12-09T08:09:59.626Z,955.56
2022-12-09T08:11:00.720Z,955.56
2022-12-09T08:11:59.810Z,955.56
2022-12-09T08:13:00.012Z,955.57
2022-12-09T08:14:04.349Z,955.63
2022-12-09T08:15:00.324Z,955.60
2022-12-09T08:16:00.730Z,955.62
2022-12-09T08:17:00.238Z,955.61
2022-12-09T08:18:00.233Z,955.65
2022-12-09T08:19:00.145Z,955.66
2022-12-09T08:20:00.225Z,955.67
2022-12-09T08:21:00.936Z,955.69
2022-12-09T08:22:00.422Z,955.65
2022-12-09T08:23:00.167Z,955.65
2022-12-09T08:24:00.831Z,955.64
2022-12-09T08:25:00.377Z,955.66
2022-12-09T08:26:01.142Z,955.66
2022-12-09T08:27:00.462Z,955.70
2022-12-09T08:28:01.361Z,955.64
2022-12-09T08:29:01.756Z,955.63
2022-12-09T08:30:01.677Z,955.61
2022-12-09T08:31:01.378Z,955.58
2022-12-09T08:32:00.735Z,955.54
2022-12-09T08:33:00.828Z,955.57
2022-12-09T08:34:01.542Z,955.53
2022-12-09T08:35:00.833Z,955.57
2022-12-09T08:36:00.646Z,955.55
2022-12-09T08:37:02.494Z,955.51
2022-12-09T08:38:00.987Z,955.55
2022-12-09T08:39:01.354Z,955.56
2022-12-09T08:40:00.911Z,955.56
2022-12-09T08:41:01.855Z,955.56
2022-12-09T08:42:00.939Z,955.58
2022-12-09T08:43:01.823Z,955.53
2022-12-09T08:44:01.023Z,955.55
2022-12-09T08:45:02.932Z,955.54
2022-12-09T08:46:01.072Z,955.53
2022-12-09T08:47:01.145Z,955.53
2022-12-09T08:48:02.095Z,955.55
2022-12-09T08:49:01.921Z,955.54
2022-12-09T08:50:02.073Z,955.56
2022-12-09T08:51:01.899Z,955.56
2022-12-09T08:52:01.242Z,955.54
2022-12-09T08:53:02.549Z,955.50
2022-12-09T08:54:02.490Z,955.51
2022-12-09T08:55:01.454Z,955.47
2022-12-09T08:56:02.612Z,955.45
2022-12-09T08:57:01.716Z,955.45
2022-12-09T08:58:01.539Z,955.41
2022-12-09T08:59:02.350Z,955.44
2022-12-09T09:00:02.268Z,955.48
2022-12-09T09:01:02.440Z,955.50
2022-12-09T09:02:02.044Z,955.49
2022-12-09T09:03:02.847Z,955.51
2022-12-09T09:04:02.080Z,955.49
2022-12-09T09:05:02.950Z,955.49
2022-12-09T09:06:09.321Z,955.53
2022-12-09T09:07:03.038Z,955.56
2022-12-09T09:08:02.942Z,955.54
2022-12-09T09:09:02.264Z,955.51
2022-12-09T09:10:02.425Z,955.49
2022-12-09T09:11:03.002Z,955.52
2022-12-09T09:12:02.098Z,955.54
2022-12-09T09:13:02.904Z,955.56
2022-12-09T09:14:02.242Z,955.51
2022-12-09T09:15:04.461Z,955.49
2022-12-09T09:16:02.661Z,955.50
2022-12-09T09:17:03.529Z,955.54
2022-12-09T09:18:03.782Z,955.62
2022-12-09T09:19:02.741Z,955.61
2022-12-09T09:20:02.534Z,955.61
2022-12-09T09:21:02.652Z,955.61
2022-12-09T09:22:02.786Z,955.60
2022-12-09T09:23:03.585Z,955.64
2022-12-09T09:24:03.081Z,955.64
2022-12-09T09:25:03.308Z,955.63
2022-12-09T09:26:03.418Z,955.62
2022-12-09T09:27:02.803Z,955.53
2022-12-09T09:28:03.641Z,955.53
2022-12-09T09:29:04.146Z,955.51
2022-12-09T09:30:03.963Z,955.53
2022-12-09T09:31:04.241Z,955.51
2022-12-09T09:32:03.181Z,955.50
2022-12-09T09:33:03.372Z,955.49
2022-12-09T09:34:03.101Z,955.53
2022-12-09T09:35:04.230Z,955.52
2022-12-09T09:36:09.643Z,955.50
2022-12-09T09:37:03.609Z,955.49
2022-12-09T09:38:03.176Z,955.51
2022-12-09T09:39:03.851Z,955.50
2022-12-09T09:40:03.276Z,955.51
2022-12-09T09:41:03.710Z,955.48
2022-12-09T09:42:08.109Z,955.47
2022-12-09T09:43:04.323Z,955.43
2022-12-09T09:44:04.604Z,955.42
2022-12-09T09:45:04.687Z,955.47
2022-12-09T09:46:03.730Z,955.41
2022-12-09T09:47:03.742Z,955.43
2022-12-09T09:48:03.826Z,955.41
2022-12-09T09:49:04.801Z,955.41
2022-12-09T09:50:04.702Z,955.40
2022-12-09T09:51:03.832Z,955.36
2022-12-09T09:52:04.559Z,955.42
2022-12-09T09:53:04.941Z,955.38
2022-12-09T09:54:08.401Z,955.38
2022-12-09T09:55:04.793Z,955.38
2022-12-09T09:56:04.210Z,955.34
2022-12-09T09:57:05.105Z,955.38
2022-12-09T09:58:04.051Z,955.36
2022-12-09T09:59:04.414Z,955.34
2022-12-09T10:00:09.277Z,955.27
2022-12-09T10:01:04.272Z,955.27
2022-12-09T10:02:05.056Z,955.24
2022-12-09T10:03:04.984Z,955.29
2022-12-09T10:04:04.557Z,955.27
2022-12-09T10:05:04.572Z,955.24
2022-12-09T10:06:05.874Z,955.27
2022-12-09T10:07:07.936Z,955.21
2022-12-09T10:08:05.474Z,955.19
2022-12-09T10:09:04.776Z,955.19
2022-12-09T10:10:04.778Z,955.20
2022-12-09T10:11:04.892Z,955.16
2022-12-09T10:12:05.532Z,955.11
2022-12-09T10:13:09.381Z,955.10
2022-12-09T10:14:05.027Z,955.08
2022-12-09T10:15:05.570Z,955.07
2022-12-09T10:16:04.886Z,955.08
2022-12-09T10:17:05.961Z,955.03
2022-12-09T10:18:06.213Z,955.03
2022-12-09T10:19:09.010Z,955.04
2022-12-09T10:20:05.059Z,955.00
2022-12-09T10:21:05.035Z,955.01
2022-12-09T10:22:05.835Z,954.99
2022-12-09T10:23:06.022Z,954.95
2022-12-09T10:24:05.540Z,954.97
2022-12-09T10:25:05.552Z,954.94
2022-12-09T10:26:05.314Z,954.97
2022-12-09T10:27:06.182Z,954.96
2022-12-09T10:28:05.713Z,954.94
2022-12-09T10:29:05.727Z,954.97
2022-12-09T10:30:05.737Z,954.90
2022-12-09T10:31:06.420Z,954.94
2022-12-09T10:32:05.857Z,954.90
2022-12-09T10:33:05.663Z,954.87
2022-12-09T10:34:05.702Z,954.85
2022-12-09T10:35:06.098Z,954.84
2022-12-09T10:36:06.383Z,954.82
2022-12-09T10:37:05.825Z,954.79
2022-12-09T10:38:05.730Z,954.80
2022-12-09T10:39:06.051Z,954.75
2022-12-09T10:40:07.749Z,954.75
2022-12-09T10:41:07.278Z,954.73
2022-12-09T10:42:07.009Z,954.69
2022-12-09T10:43:06.013Z,954.69
2022-12-09T10:44:06.040Z,954.66
2022-12-09T10:45:06.851Z,954.65
2022-12-09T10:46:17.746Z,954.65
2022-12-09T10:47:06.191Z,954.61
2022-12-09T10:48:07.188Z,954.61
2022-12-09T10:49:06.635Z,954.62
2022-12-09T10:50:06.621Z,954.60
2022-12-09T10:51:06.597Z,954.63
2022-12-09T10:52:06.443Z,954.59
2022-12-09T10:53:06.775Z,954.58
2022-12-09T10:54:06.445Z,954.57
2022-12-09T10:55:07.404Z,954.57
2022-12-09T10:56:07.285Z,954.53
2022-12-09T10:57:06.599Z,954.54
2022-12-09T10:58:06.553Z,954.53
2022-12-09T10:59:07.401Z,954.50
2022-12-09T11:00:08.301Z,954.51
2022-12-09T11:01:06.995Z,954.51
2022-12-09T11:02:07.023Z,954.44
2022-12-09T11:03:07.007Z,954.46
2022-12-09T11:04:07.296Z,954.51
2022-12-09T11:05:07.212Z,954.46
2022-12-09T11:06:08.312Z,954.46
2022-12-09T11:07:07.013Z,954.47
2022-12-09T11:08:07.020Z,954.48
2022-12-09T11:09:07.337Z,954.48
2022-12-09T11:10:08.763Z,954.49
2022-12-09T11:11:07.219Z,954.44
2022-12-09T11:12:07.606Z,954.44
2022-12-09T11:13:07.209Z,954.44
2022-12-09T11:14:07.553Z,954.39
2022-12-09T11:15:07.759Z,954.39
2022-12-09T11:16:07.421Z,954.36
2022-12-09T11:17:07.415Z,954.37
2022-12-09T11:18:07.871Z,954.39
2022-12-09T11:19:08.425Z,954.37
2022-12-09T11:20:09.106Z,954.35
2022-12-09T11:21:07.945Z,954.35
2022-12-09T11:22:07.790Z,954.37
2022-12-09T11:23:08.350Z,954.39
2022-12-09T11:24:07.878Z,954.38
2022-12-09T11:25:08.580Z,954.33
2022-12-09T11:26:07.876Z,954.33
2022-12-09T11:27:07.777Z,954.36
2022-12-09T11:28:08.016Z,954.38
2022-12-09T11:29:08.201Z,954.37
2022-12-09T11:30:12.835Z,954.37
2022-12-09T11:31:34.080Z,954.38
2022-12-09T11:32:08.054Z,954.37
2022-12-09T11:33:08.106Z,954.36
2022-12-09T11:34:08.262Z,954.35
2022-12-09T11:35:09.373Z,954.31
2022-12-09T11:37:08.742Z,954.31
2022-12-09T11:38:08.247Z,954.31
2022-12-09T11:39:08.252Z,954.28
2022-12-09T11:40:09.384Z,954.24
2022-12-09T11:41:08.342Z,954.25
2022-12-09T11:42:16.181Z,954.22
2022-12-09T11:43:08.461Z,954.17
2022-12-09T11:44:09.252Z,954.16
2022-12-09T11:45:09.245Z,954.12
2022-12-09T11:46:08.581Z,954.16
2022-12-09T11:47:08.634Z,954.15
2022-12-09T11:48:32.575Z,954.16
2022-12-09T11:49:08.688Z,954.13
2022-12-09T11:50:08.969Z,954.11
2022-12-09T11:51:08.794Z,954.09
2022-12-09T11:52:08.836Z,954.06
2022-12-09T11:53:08.890Z,954.02
2022-12-09T11:54:09.753Z,954.04
2022-12-09T11:55:08.932Z,954.04
2022-12-09T11:56:09.020Z,954.06
2022-12-09T11:57:09.028Z,954.09
2022-12-09T11:58:09.064Z,954.11
2022-12-09T11:59:09.105Z,954.13
2022-12-09T12:00:09.278Z,954.13
2022-12-09T12:01:09.234Z,954.10
2022-12-09T12:02:09.268Z,954.10
2022-12-09T12:03:10.331Z,954.07
2022-12-09T12:04:09.328Z,954.00
2022-12-09T12:05:10.257Z,954.01
2022-12-09T12:06:09.441Z,954.00
2022-12-09T12:07:09.465Z,954.03
2022-12-09T12:08:10.357Z,954.07
2022-12-09T12:09:09.564Z,954.10
2022-12-09T12:10:09.799Z,954.09
2022-12-09T12:11:15.062Z,954.08
2022-12-09T12:12:09.658Z,954.10
2022-12-09T12:13:10.444Z,954.10
2022-12-09T12:14:09.772Z,954.06
2022-12-09T12:15:11.441Z,954.08
2022-12-09T12:16:09.837Z,954.11
2022-12-09T12:17:10.560Z,954.13
2022-12-09T12:18:10.480Z,954.11
2022-12-09T12:19:10.749Z,954.08
2022-12-09T12:20:10.759Z,954.10
2022-12-09T12:21:10.038Z,954.13
2022-12-09T12:22:10.767Z,954.16
2022-12-09T12:23:10.173Z,954.16
2022-12-09T12:24:10.750Z,954.20
2022-12-09T12:25:17.154Z,954.19
2022-12-09T12:26:10.768Z,954.15
2022-12-09T12:27:10.294Z,954.16
2022-12-09T12:28:10.383Z,954.11
2022-12-09T12:29:11.263Z,954.04
2022-12-09T12:30:11.255Z,954.04
2022-12-09T12:31:11.251Z,954.04
2022-12-09T12:32:11.315Z,954.01
2022-12-09T12:34:26.440Z,954.05
2022-12-09T12:35:10.671Z,954.11
2022-12-09T12:36:11.257Z,954.10
2022-12-09T12:37:10.724Z,954.10
2022-12-09T12:38:10.760Z,954.08
2022-12-09T12:39:11.762Z,954.08
2022-12-09T12:40:11.033Z,954.10
2022-12-09T12:41:10.888Z,954.12
2022-12-09T12:42:11.752Z,954.07
2022-12-09T12:43:11.749Z,954.07
2022-12-09T12:44:11.774Z,954.04
2022-12-09T12:45:11.078Z,954.02
2022-12-09T12:46:11.117Z,954.07
2022-12-09T12:47:11.142Z,954.06
2022-12-09T12:48:11.796Z,954.05
2022-12-09T12:49:11.760Z,954.08
2022-12-09T12:50:11.341Z,954.11
2022-12-09T12:51:11.337Z,954.10
2022-12-09T12:52:26.303Z,954.13
2022-12-09T12:53:11.386Z,954.12
2022-12-09T12:54:11.455Z,954.12
2022-12-09T12:55:12.261Z,954.11
2022-12-09T12:56:11.528Z,954.09
2022-12-09T12:57:11.570Z,954.05
2022-12-09T12:58:11.633Z,954.09
2022-12-09T12:59:11.644Z,954.09
2022-12-09T13:00:12.264Z,954.11
2022-12-09T13:01:11.756Z,954.10
2022-12-09T13:02:11.855Z,954.10
2022-12-09T13:03:11.844Z,954.08
2022-12-09T13:04:11.896Z,954.14
2022-12-09T13:05:12.763Z,954.09
2022-12-09T13:06:11.949Z,954.12
2022-12-09T13:07:11.982Z,954.13
2022-12-09T13:08:12.076Z,954.12
2022-12-09T13:09:12.107Z,954.16
2022-12-09T13:10:12.109Z,954.17
2022-12-09T13:11:12.156Z,954.21
2022-12-09T13:12:12.188Z,954.20
2022-12-09T13:13:12.233Z,954.21
2022-12-09T13:14:12.303Z,954.19
2022-12-09T13:15:12.356Z,954.22
2022-12-09T13:16:13.314Z,954.26
2022-12-09T13:17:12.409Z,954.22
2022-12-09T13:18:13.253Z,954.24
2022-12-09T13:19:13.263Z,954.21
2022-12-09T13:20:12.578Z,954.22
2022-12-09T13:21:13.268Z,954.25
2022-12-09T13:22:12.613Z,954.29
2022-12-09T13:23:12.692Z,954.28
2022-12-09T13:24:13.261Z,954.23
2022-12-09T13:25:13.254Z,954.25
2022-12-09T13:26:12.789Z,954.29
2022-12-09T13:27:13.759Z,954.30
2022-12-09T13:28:12.907Z,954.30
2022-12-09T13:29:13.761Z,954.32
2022-12-09T13:30:12.962Z,954.25
2022-12-09T13:31:13.037Z,954.23
2022-12-09T13:32:13.761Z,954.26
2022-12-09T13:33:13.116Z,954.26
2022-12-09T13:34:13.118Z,954.25
2022-12-09T13:35:13.169Z,954.30
2022-12-09T13:36:13.203Z,954.29
2022-12-09T13:37:13.277Z,954.32
2022-12-09T13:38:14.267Z,954.28
2022-12-09T13:39:13.374Z,954.31
2022-12-09T13:40:14.265Z,954.32
2022-12-09T13:41:13.420Z,954.34
2022-12-09T13:42:13.455Z,954.34
2022-12-09T13:43:13.507Z,954.36
2022-12-09T13:44:13.574Z,954.40
2022-12-09T13:45:13.599Z,954.40
2022-12-09T13:46:13.673Z,954.41
2022-12-09T13:47:14.261Z,954.37
2022-12-09T13:48:16.929Z,954.37
2022-12-09T13:49:13.780Z,954.37
2022-12-09T13:50:13.811Z,954.38
2022-12-09T13:51:14.758Z,954.36
2022-12-09T13:52:13.875Z,954.36
2022-12-09T13:53:13.924Z,954.41
2022-12-09T13:54:14.003Z,954.40
2022-12-09T13:55:14.757Z,954.44
2022-12-09T13:56:14.755Z,954.41
2022-12-09T13:57:14.768Z,954.40
2022-12-09T13:58:14.130Z,954.42
2022-12-09T13:59:14.202Z,954.44
2022-12-09T14:00:14.763Z,954.39
2022-12-09T14:01:14.763Z,954.45
2022-12-09T14:02:14.363Z,954.47
2022-12-09T14:03:15.306Z,954.48
2022-12-09T14:04:14.409Z,954.45
2022-12-09T14:05:14.440Z,954.48
2022-12-09T14:06:15.261Z,954.49
2022-12-09T14:07:15.258Z,954.53
2022-12-09T14:08:14.592Z,954.51
2022-12-09T14:09:15.261Z,954.51
2022-12-09T14:10:14.665Z,954.53
2022-12-09T14:11:14.664Z,954.49
2022-12-09T14:12:14.706Z,954.51
2022-12-09T14:13:15.266Z,954.47
2022-12-09T14:14:14.793Z,954.45
2022-12-09T14:15:14.859Z,954.46
2022-12-09T14:16:14.933Z,954.42
2022-12-09T14:17:14.917Z,954.44
2022-12-09T14:18:15.756Z,954.43
2022-12-09T14:19:15.562Z,954.44
2022-12-09T14:20:15.064Z,954.48
2022-12-09T14:21:15.077Z,954.50
2022-12-09T14:22:15.116Z,954.48
2022-12-09T14:23:15.758Z,954.47
2022-12-09T14:24:15.759Z,954.46
2022-12-09T14:25:15.286Z,954.49
2022-12-09T14:26:15.294Z,954.47
2022-12-09T14:27:16.266Z,954.50
2022-12-09T14:28:15.412Z,954.51
2022-12-09T14:29:16.262Z,954.54
2022-12-09T14:30:16.271Z,954.54
2022-12-09T14:31:15.520Z,954.55
2022-12-09T14:32:16.269Z,954.53
2022-12-09T14:33:16.260Z,954.55
2022-12-09T14:34:15.656Z,954.56
2022-12-09T14:35:15.704Z,954.58
2022-12-09T14:36:15.711Z,954.58
2022-12-09T14:37:15.738Z,954.59
2022-12-09T14:38:15.788Z,954.63
2022-12-09T14:39:24.152Z,954.65
2022-12-09T14:40:15.967Z,954.65
2022-12-09T14:41:15.942Z,954.70
2022-12-09T14:42:15.955Z,954.75
2022-12-09T14:43:16.000Z,954.72
2022-12-09T14:44:16.060Z,954.76
2022-12-09T14:45:16.771Z,954.75
2022-12-09T14:46:16.220Z,954.76
2022-12-09T14:47:16.156Z,954.73
2022-12-09T14:48:16.206Z,954.75
2022-12-09T14:49:16.769Z,954.76
2022-12-09T14:50:17.271Z,954.81
2022-12-09T14:51:16.355Z,954.84
2022-12-09T14:52:17.265Z,954.85
2022-12-09T14:53:17.264Z,954.87
2022-12-09T14:54:17.260Z,954.86
2022-12-09T14:55:17.269Z,954.84
2022-12-09T14:56:16.549Z,954.89
2022-12-09T14:57:17.526Z,954.87
2022-12-09T14:58:16.614Z,954.87
2022-12-09T14:59:17.269Z,954.90
2022-12-09T15:00:17.280Z,954.87
2022-12-09T15:01:17.271Z,954.92
2022-12-09T15:02:16.867Z,954.88
2022-12-09T15:03:39.588Z,954.90
2022-12-09T15:04:16.927Z,954.99
2022-12-09T15:05:17.814Z,954.97
2022-12-09T15:06:17.779Z,955.03
2022-12-09T15:07:16.994Z,955.00
2022-12-09T15:08:17.818Z,955.02
2022-12-09T15:09:17.773Z,955.02
2022-12-09T15:10:19.768Z,955.05
2022-12-09T15:11:17.781Z,955.02
2022-12-09T15:12:17.214Z,955.07
2022-12-09T15:13:17.771Z,955.08
2022-12-09T15:14:17.775Z,955.10
2022-12-09T15:15:18.274Z,955.10
2022-12-09T15:16:18.332Z,955.09
2022-12-09T15:17:17.420Z,955.12
2022-12-09T15:18:18.267Z,955.15
2022-12-09T15:19:36.972Z,955.16
2022-12-09T15:20:17.830Z,955.11
2022-12-09T15:21:17.545Z,955.16
2022-12-09T15:22:17.611Z,955.17
2022-12-09T15:23:18.274Z,955.19
2022-12-09T15:24:17.675Z,955.23
2022-12-09T15:25:17.741Z,955.23
2022-12-09T15:26:18.285Z,955.24
2022-12-09T15:27:17.797Z,955.31
2022-12-09T15:28:24.513Z,955.31
2022-12-09T15:29:17.903Z,955.37
2022-12-09T15:30:18.766Z,955.37
2022-12-09T15:31:18.882Z,955.42
2022-12-09T15:32:18.781Z,955.42
2022-12-09T15:33:18.770Z,955.45
2022-12-09T15:34:23.202Z,955.43
2022-12-09T15:35:18.128Z,955.43
2022-12-09T15:36:18.764Z,955.42
2022-12-09T15:37:18.780Z,955.45
2022-12-09T15:38:18.783Z,955.48
2022-12-09T15:39:18.309Z,955.46
2022-12-09T15:40:18.353Z,955.45
2022-12-09T15:41:19.277Z,955.46
2022-12-09T15:42:19.272Z,955.48
2022-12-09T15:43:18.460Z,955.51
2022-12-09T15:44:19.281Z,955.48
2022-12-09T15:45:18.553Z,955.48
2022-12-09T15:46:18.610Z,955.50
2022-12-09T15:47:18.656Z,955.49
2022-12-09T15:48:18.646Z,955.51
2022-12-09T15:49:18.702Z,955.52
2022-12-09T15:50:18.743Z,955.53
2022-12-09T15:51:18.797Z,955.49
2022-12-09T15:52:19.780Z,955.48
2022-12-09T15:53:18.850Z,955.48
2022-12-09T15:54:18.911Z,955.48
2022-12-09T15:55:19.773Z,955.50
2022-12-09T15:56:18.987Z,955.50
2022-12-09T15:57:19.039Z,955.51
2022-12-09T15:58:19.778Z,955.51
2022-12-09T15:59:19.101Z,955.50
2022-12-09T16:00:19.767Z,955.49
2022-12-09T16:01:19.170Z,955.50
2022-12-09T16:02:19.385Z,955.50
2022-12-09T16:03:21.791Z,955.46
2022-12-09T16:04:19.304Z,955.51
2022-12-09T16:05:19.356Z,955.52
2022-12-09T16:06:20.275Z,955.51
2022-12-09T16:07:19.415Z,955.56
2022-12-09T16:08:19.486Z,955.53
2022-12-09T16:09:19.493Z,955.58
2022-12-09T16:10:19.602Z,955.59
2022-12-09T16:11:20.907Z,955.57
2022-12-09T16:12:20.275Z,955.60
2022-12-09T16:13:19.655Z,955.57
2022-12-09T16:14:19.715Z,955.54
2022-12-09T16:15:19.766Z,955.55
2022-12-09T16:16:19.854Z,955.51
2022-12-09T16:17:19.814Z,955.58
2022-12-09T16:18:19.884Z,955.57
2022-12-09T16:19:19.904Z,955.56
2022-12-09T16:20:19.939Z,955.57
2022-12-09T16:21:20.010Z,955.56
2022-12-09T16:22:20.023Z,955.57
2022-12-09T16:23:20.061Z,955.58
2022-12-09T16:24:20.790Z,955.56
2022-12-09T16:25:20.171Z,955.58
2022-12-09T16:26:20.204Z,955.59
2022-12-09T16:27:20.222Z,955.61
2022-12-09T16:28:20.263Z,955.59
2022-12-09T16:29:20.341Z,955.57
2022-12-09T16:30:21.270Z,955.56
2022-12-09T16:31:20.458Z,955.58
2022-12-09T16:32:20.426Z,955.59
2022-12-09T16:33:20.473Z,955.60
2022-12-09T16:34:20.506Z,955.60
2022-12-09T16:35:20.626Z,955.60
2022-12-09T16:36:20.588Z,955.65
2022-12-09T16:37:20.626Z,955.64
2022-12-09T16:38:20.671Z,955.72
2022-12-09T16:39:20.707Z,955.71
2022-12-09T16:40:20.791Z,955.70
2022-12-09T16:41:20.792Z,955.71
2022-12-09T16:42:20.869Z,955.72
2022-12-09T16:43:20.880Z,955.68
2022-12-09T16:44:20.915Z,955.71
2022-12-09T16:45:21.769Z,955.71
2022-12-09T16:46:21.081Z,955.72
2022-12-09T16:47:21.040Z,955.72
2022-12-09T16:48:21.085Z,955.72
2022-12-09T16:49:21.129Z,955.75
2022-12-09T16:50:21.181Z,955.78
2022-12-09T16:51:21.210Z,955.77
2022-12-09T16:52:21.242Z,955.80
2022-12-09T16:53:22.273Z,955.81
2022-12-09T16:54:22.279Z,955.80
2022-12-09T16:55:21.396Z,955.81
2022-12-09T16:56:21.402Z,955.84
2022-12-09T16:57:21.455Z,955.87
2022-12-09T16:58:21.478Z,955.89
2022-12-09T16:59:21.551Z,955.89
2022-12-09T17:00:21.576Z,955.91
2022-12-09T17:01:21.639Z,955.89
2022-12-09T17:02:21.702Z,955.96
2022-12-09T17:03:21.688Z,955.95
2022-12-09T17:04:21.750Z,955.91
2022-12-09T17:05:21.760Z,955.91
2022-12-09T17:06:21.813Z,955.89
2022-12-09T17:07:21.869Z,955.87
2022-12-09T17:08:21.929Z,955.89
2022-12-09T17:09:21.926Z,955.87
2022-12-09T17:10:21.969Z,955.92
2022-12-09T17:11:22.776Z,955.95
2022-12-09T17:12:22.136Z,955.95
2022-12-09T17:13:22.088Z,956.01
2022-12-09T17:14:22.134Z,956.03
2022-12-09T17:15:22.211Z,956.03
2022-12-09T17:16:22.467Z,956.01
2022-12-09T17:17:22.271Z,956.01
2022-12-09T17:18:22.289Z,955.99
2022-12-09T17:19:22.325Z,955.96